sensor_id;sensor_type;location;lat;lon;timestamp;P1;durP1;ratioP1;P2;durP2;ratioP2
75655;SDS011;64252;51.094;13.714;2023-02-08T00:00:58;54.78;;;26.55;;
75655;SDS011;64252;51.094;13.714;2023-02-08T00:03:24;55.92;;;26.95;;
75655;SDS011;64252;51.094;13.714;2023-02-08T00:05:51;59.00;;;27.85;;
75655;SDS011;64252;51.094;13.714;2023-02-08T00:08:17;63.28;;;29.38;;
75655;SDS011;64252;51.094;13.714;2023-02-08T00:10:42;59.13;;;28.95;;
75655;SDS011;64252;51.094;13.714;2023-02-08T00:13:08;52.58;;;24.90;;
75655;SDS011;64252;51.094;13.714;2023-02-08T00:15:34;45.92;;;22.92;;
75655;SDS011;64252;51.094;13.714;2023-02-08T00:17:59;52.10;;;25.70;;
75655;SDS011;64252;51.094;13.714;2023-02-08T00:20:25;54.10;;;27.58;;
75655;SDS011;64252;51.094;13.714;2023-02-08T00:22:51;46.15;;;22.98;;
75655;SDS011;64252;51.094;13.714;2023-02-08T00:25:16;53.38;;;27.08;;
75655;SDS011;64252;51.094;13.714;2023-02-08T00:27:43;55.35;;;27.42;;
75655;SDS011;64252;51.094;13.714;2023-02-08T00:30:08;57.95;;;29.45;;
75655;SDS011;64252;51.094;13.714;2023-02-08T00:32:34;58.53;;;28.38;;
75655;SDS011;64252;51.094;13.714;2023-02-08T00:35:00;63.45;;;29.38;;
75655;SDS011;64252;51.094;13.714;2023-02-08T00:37:26;51.95;;;25.05;;
75655;SDS011;64252;51.094;13.714;2023-02-08T00:39:52;48.85;;;23.25;;
75655;SDS011;64252;51.094;13.714;2023-02-08T00:42:17;47.45;;;22.90;;
75655;SDS011;64252;51.094;13.714;2023-02-08T00:44:43;41.22;;;19.35;;
75655;SDS011;64252;51.094;13.714;2023-02-08T00:47:09;54.55;;;25.90;;
75655;SDS011;64252;51.094;13.714;2023-02-08T00:49:34;48.72;;;24.83;;
75655;SDS011;64252;51.094;13.714;2023-02-08T00:52:00;54.05;;;26.95;;
75655;SDS011;64252;51.094;13.714;2023-02-08T00:54:26;53.72;;;24.95;;
75655;SDS011;64252;51.094;13.714;2023-02-08T00:56:51;57.90;;;26.75;;
75655;SDS011;64252;51.094;13.714;2023-02-08T00:59:17;40.90;;;20.30;;
75655;SDS011;64252;51.094;13.714;2023-02-08T01:01:43;45.75;;;22.27;;
75655;SDS011;64252;51.094;13.714;2023-02-08T01:04:09;54.13;;;25.38;;
75655;SDS011;64252;51.094;13.714;2023-02-08T01:06:35;53.13;;;22.05;;
75655;SDS011;64252;51.094;13.714;2023-02-08T01:09:00;52.17;;;24.48;;
75655;SDS011;64252;51.094;13.714;2023-02-08T01:11:26;40.47;;;18.15;;
75655;SDS011;64252;51.094;13.714;2023-02-08T01:13:52;50.15;;;24.40;;
75655;SDS011;64252;51.094;13.714;2023-02-08T01:16:26;48.88;;;23.73;;
75655;SDS011;64252;51.094;13.714;2023-02-08T01:18:54;54.67;;;25.60;;
75655;SDS011;64252;51.094;13.714;2023-02-08T01:21:23;53.72;;;25.17;;
75655;SDS011;64252;51.094;13.714;2023-02-08T01:23:51;52.78;;;24.23;;
75655;SDS011;64252;51.094;13.714;2023-02-08T01:26:17;50.80;;;25.42;;
75655;SDS011;64252;51.094;13.714;2023-02-08T01:28:43;53.95;;;23.63;;
75655;SDS011;64252;51.094;13.714;2023-02-08T01:31:11;54.05;;;24.80;;
75655;SDS011;64252;51.094;13.714;2023-02-08T01:33:38;51.88;;;23.23;;
75655;SDS011;64252;51.094;13.714;2023-02-08T01:36:04;50.00;;;24.25;;
75655;SDS011;64252;51.094;13.714;2023-02-08T01:38:34;47.97;;;24.05;;
75655;SDS011;64252;51.094;13.714;2023-02-08T01:41:01;46.63;;;23.70;;
75655;SDS011;64252;51.094;13.714;2023-02-08T01:43:29;48.72;;;24.52;;
75655;SDS011;64252;51.094;13.714;2023-02-08T01:45:58;34.05;;;16.58;;
75655;SDS011;64252;51.094;13.714;2023-02-08T01:51:00;42.13;;;21.25;;
75655;SDS011;64252;51.094;13.714;2023-02-08T01:53:41;39.97;;;19.05;;
75655;SDS011;64252;51.094;13.714;2023-02-08T01:56:10;44.22;;;20.60;;
75655;SDS011;64252;51.094;13.714;2023-02-08T01:58:41;39.95;;;17.13;;
75655;SDS011;64252;51.094;13.714;2023-02-08T02:01:10;45.28;;;21.95;;
75655;SDS011;64252;51.094;13.714;2023-02-08T02:03:38;48.53;;;21.60;;
75655;SDS011;64252;51.094;13.714;2023-02-08T02:06:13;53.42;;;22.35;;
75655;SDS011;64252;51.094;13.714;2023-02-08T02:08:51;44.33;;;21.02;;
75655;SDS011;64252;51.094;13.714;2023-02-08T02:11:25;40.15;;;20.20;;
75655;SDS011;64252;51.094;13.714;2023-02-08T02:13:52;40.53;;;19.42;;
75655;SDS011;64252;51.094;13.714;2023-02-08T02:16:18;39.95;;;19.75;;
75655;SDS011;64252;51.094;13.714;2023-02-08T02:18:44;42.30;;;20.00;;
75655;SDS011;64252;51.094;13.714;2023-02-08T02:26:30;40.33;;;19.13;;
75655;SDS011;64252;51.094;13.714;2023-02-08T02:29:38;39.10;;;17.42;;
75655;SDS011;64252;51.094;13.714;2023-02-08T02:32:24;39.28;;;18.65;;
75655;SDS011;64252;51.094;13.714;2023-02-08T02:43:41;35.95;;;15.40;;
75655;SDS011;64252;51.094;13.714;2023-02-08T02:49:06;31.75;;;16.58;;
75655;SDS011;64252;51.094;13.714;2023-02-08T02:51:45;43.75;;;20.55;;
75655;SDS011;64252;51.094;13.714;2023-02-08T02:54:32;39.70;;;17.60;;
75655;SDS011;64252;51.094;13.714;2023-02-08T02:57:06;45.80;;;21.40;;
75655;SDS011;64252;51.094;13.714;2023-02-08T02:59:35;44.28;;;21.55;;
75655;SDS011;64252;51.094;13.714;2023-02-08T03:02:03;50.83;;;23.73;;
75655;SDS011;64252;51.094;13.714;2023-02-08T03:10:06;38.08;;;16.13;;
75655;SDS011;64252;51.094;13.714;2023-02-08T03:12:54;36.17;;;16.73;;
75655;SDS011;64252;51.094;13.714;2023-02-08T03:23:53;43.15;;;18.67;;
75655;SDS011;64252;51.094;13.714;2023-02-08T03:26:30;38.90;;;18.45;;
75655;SDS011;64252;51.094;13.714;2023-02-08T03:29:08;38.60;;;17.90;;
75655;SDS011;64252;51.094;13.714;2023-02-08T03:32:03;33.40;;;13.95;;
75655;SDS011;64252;51.094;13.714;2023-02-08T03:37:18;49.67;;;18.92;;
75655;SDS011;64252;51.094;13.714;2023-02-08T03:39:48;45.38;;;20.90;;
75655;SDS011;64252;51.094;13.714;2023-02-08T03:42:22;39.05;;;18.45;;
75655;SDS011;64252;51.094;13.714;2023-02-08T03:44:51;39.38;;;18.65;;
75655;SDS011;64252;51.094;13.714;2023-02-08T03:47:22;39.40;;;19.50;;
75655;SDS011;64252;51.094;13.714;2023-02-08T03:49:51;43.30;;;20.80;;
75655;SDS011;64252;51.094;13.714;2023-02-08T03:52:19;45.00;;;21.55;;
75655;SDS011;64252;51.094;13.714;2023-02-08T03:58:07;30.40;;;13.55;;
75655;SDS011;64252;51.094;13.714;2023-02-08T04:00:40;39.45;;;20.02;;
75655;SDS011;64252;51.094;13.714;2023-02-08T04:03:13;39.03;;;18.85;;
75655;SDS011;64252;51.094;13.714;2023-02-08T04:05:47;30.75;;;13.98;;
75655;SDS011;64252;51.094;13.714;2023-02-08T04:08:13;39.95;;;19.25;;
75655;SDS011;64252;51.094;13.714;2023-02-08T04:10:39;41.05;;;18.42;;
75655;SDS011;64252;51.094;13.714;2023-02-08T04:13:04;38.00;;;16.95;;
75655;SDS011;64252;51.094;13.714;2023-02-08T04:15:30;42.03;;;17.33;;
75655;SDS011;64252;51.094;13.714;2023-02-08T04:17:55;47.65;;;19.30;;
75655;SDS011;64252;51.094;13.714;2023-02-08T04:20:21;39.47;;;18.90;;
75655;SDS011;64252;51.094;13.714;2023-02-08T04:22:46;32.67;;;15.82;;
75655;SDS011;64252;51.094;13.714;2023-02-08T04:25:12;29.02;;;14.02;;
75655;SDS011;64252;51.094;13.714;2023-02-08T04:27:38;33.65;;;14.70;;
75655;SDS011;64252;51.094;13.714;2023-02-08T04:30:04;43.53;;;18.67;;
75655;SDS011;64252;51.094;13.714;2023-02-08T04:32:30;44.47;;;18.88;;
75655;SDS011;64252;51.094;13.714;2023-02-08T04:34:55;46.10;;;19.95;;
75655;SDS011;64252;51.094;13.714;2023-02-08T04:37:21;45.22;;;19.63;;
75655;SDS011;64252;51.094;13.714;2023-02-08T04:39:47;38.08;;;19.35;;
75655;SDS011;64252;51.094;13.714;2023-02-08T04:42:12;41.33;;;19.60;;
75655;SDS011;64252;51.094;13.714;2023-02-08T04:44:38;46.33;;;21.55;;
75655;SDS011;64252;51.094;13.714;2023-02-08T04:47:03;41.22;;;20.30;;
75655;SDS011;64252;51.094;13.714;2023-02-08T04:49:29;41.58;;;19.63;;
75655;SDS011;64252;51.094;13.714;2023-02-08T04:51:54;43.45;;;20.50;;
75655;SDS011;64252;51.094;13.714;2023-02-08T04:54:20;45.38;;;21.60;;
75655;SDS011;64252;51.094;13.714;2023-02-08T04:56:46;40.72;;;18.27;;
75655;SDS011;64252;51.094;13.714;2023-02-08T04:59:11;42.65;;;19.48;;
75655;SDS011;64252;51.094;13.714;2023-02-08T05:01:37;37.20;;;14.80;;
75655;SDS011;64252;51.094;13.714;2023-02-08T05:04:02;32.63;;;14.55;;
75655;SDS011;64252;51.094;13.714;2023-02-08T05:06:28;42.33;;;19.35;;
75655;SDS011;64252;51.094;13.714;2023-02-08T05:08:53;35.03;;;15.10;;
75655;SDS011;64252;51.094;13.714;2023-02-08T05:11:19;35.42;;;18.00;;
75655;SDS011;64252;51.094;13.714;2023-02-08T05:13:49;42.40;;;20.35;;
75655;SDS011;64252;51.094;13.714;2023-02-08T05:16:15;41.17;;;19.00;;
75655;SDS011;64252;51.094;13.714;2023-02-08T05:18:41;37.97;;;19.10;;
75655;SDS011;64252;51.094;13.714;2023-02-08T05:21:07;38.58;;;17.38;;
75655;SDS011;64252;51.094;13.714;2023-02-08T05:23:33;36.63;;;14.45;;
75655;SDS011;64252;51.094;13.714;2023-02-08T05:25:59;38.38;;;18.25;;
75655;SDS011;64252;51.094;13.714;2023-02-08T05:28:29;30.23;;;14.02;;
75655;SDS011;64252;51.094;13.714;2023-02-08T05:30:54;35.55;;;18.23;;
75655;SDS011;64252;51.094;13.714;2023-02-08T05:33:20;32.25;;;15.45;;
75655;SDS011;64252;51.094;13.714;2023-02-08T05:35:45;39.10;;;18.45;;
75655;SDS011;64252;51.094;13.714;2023-02-08T05:38:11;41.15;;;17.33;;
75655;SDS011;64252;51.094;13.714;2023-02-08T05:40:36;32.85;;;14.57;;
75655;SDS011;64252;51.094;13.714;2023-02-08T05:43:02;34.60;;;14.95;;
75655;SDS011;64252;51.094;13.714;2023-02-08T05:45:28;33.75;;;15.68;;
75655;SDS011;64252;51.094;13.714;2023-02-08T05:47:53;39.75;;;19.27;;
75655;SDS011;64252;51.094;13.714;2023-02-08T05:50:19;40.47;;;19.42;;
75655;SDS011;64252;51.094;13.714;2023-02-08T05:52:49;39.65;;;17.55;;
75655;SDS011;64252;51.094;13.714;2023-02-08T05:55:14;38.85;;;16.15;;
75655;SDS011;64252;51.094;13.714;2023-02-08T05:57:42;41.20;;;19.58;;
75655;SDS011;64252;51.094;13.714;2023-02-08T06:00:08;48.10;;;18.42;;
75655;SDS011;64252;51.094;13.714;2023-02-08T06:02:41;39.22;;;19.20;;
75655;SDS011;64252;51.094;13.714;2023-02-08T06:05:07;36.85;;;16.05;;
75655;SDS011;64252;51.094;13.714;2023-02-08T06:07:32;33.67;;;15.52;;
75655;SDS011;64252;51.094;13.714;2023-02-08T06:09:58;44.63;;;21.75;;
75655;SDS011;64252;51.094;13.714;2023-02-08T06:12:23;45.88;;;20.30;;
75655;SDS011;64252;51.094;13.714;2023-02-08T06:14:49;45.42;;;20.13;;
75655;SDS011;64252;51.094;13.714;2023-02-08T06:17:14;43.63;;;21.10;;
75655;SDS011;64252;51.094;13.714;2023-02-08T06:19:40;44.38;;;19.60;;
75655;SDS011;64252;51.094;13.714;2023-02-08T06:22:06;41.90;;;18.55;;
75655;SDS011;64252;51.094;13.714;2023-02-08T06:24:31;42.92;;;17.88;;
75655;SDS011;64252;51.094;13.714;2023-02-08T06:26:58;46.13;;;20.17;;
75655;SDS011;64252;51.094;13.714;2023-02-08T06:29:23;45.88;;;21.20;;
75655;SDS011;64252;51.094;13.714;2023-02-08T06:31:49;47.22;;;21.95;;
75655;SDS011;64252;51.094;13.714;2023-02-08T06:34:15;51.40;;;22.08;;
75655;SDS011;64252;51.094;13.714;2023-02-08T06:36:40;42.72;;;19.38;;
75655;SDS011;64252;51.094;13.714;2023-02-08T06:39:06;38.40;;;18.60;;
75655;SDS011;64252;51.094;13.714;2023-02-08T06:41:31;43.55;;;19.95;;
75655;SDS011;64252;51.094;13.714;2023-02-08T06:43:57;45.13;;;21.40;;
75655;SDS011;64252;51.094;13.714;2023-02-08T06:46:24;48.65;;;20.13;;
75655;SDS011;64252;51.094;13.714;2023-02-08T06:48:49;48.92;;;21.42;;
75655;SDS011;64252;51.094;13.714;2023-02-08T06:51:16;47.92;;;20.92;;
75655;SDS011;64252;51.094;13.714;2023-02-08T06:53:42;49.38;;;21.33;;
75655;SDS011;64252;51.094;13.714;2023-02-08T06:56:08;56.92;;;22.40;;
75655;SDS011;64252;51.094;13.714;2023-02-08T06:58:33;55.15;;;23.25;;
75655;SDS011;64252;51.094;13.714;2023-02-08T07:00:59;53.38;;;24.77;;
75655;SDS011;64252;51.094;13.714;2023-02-08T07:03:24;58.67;;;25.20;;
75655;SDS011;64252;51.094;13.714;2023-02-08T07:05:50;48.00;;;22.33;;
75655;SDS011;64252;51.094;13.714;2023-02-08T07:08:15;57.80;;;22.58;;
75655;SDS011;64252;51.094;13.714;2023-02-08T07:10:41;46.95;;;21.95;;
75655;SDS011;64252;51.094;13.714;2023-02-08T07:13:06;48.50;;;23.10;;
75655;SDS011;64252;51.094;13.714;2023-02-08T07:15:32;54.85;;;26.17;;
75655;SDS011;64252;51.094;13.714;2023-02-08T07:17:59;65.00;;;29.17;;
75655;SDS011;64252;51.094;13.714;2023-02-08T07:20:25;62.35;;;26.65;;
75655;SDS011;64252;51.094;13.714;2023-02-08T07:22:51;59.15;;;25.50;;
75655;SDS011;64252;51.094;13.714;2023-02-08T07:25:16;49.20;;;22.73;;
75655;SDS011;64252;51.094;13.714;2023-02-08T07:27:42;56.70;;;24.70;;
75655;SDS011;64252;51.094;13.714;2023-02-08T07:30:07;58.63;;;25.17;;
75655;SDS011;64252;51.094;13.714;2023-02-08T07:32:34;54.78;;;24.75;;
75655;SDS011;64252;51.094;13.714;2023-02-08T07:35:00;50.78;;;23.90;;
75655;SDS011;64252;51.094;13.714;2023-02-08T07:37:25;49.38;;;23.42;;
75655;SDS011;64252;51.094;13.714;2023-02-08T07:39:51;56.70;;;24.40;;
75655;SDS011;64252;51.094;13.714;2023-02-08T07:42:17;48.28;;;21.45;;
75655;SDS011;64252;51.094;13.714;2023-02-08T07:44:53;49.67;;;22.77;;
75655;SDS011;64252;51.094;13.714;2023-02-08T07:47:18;47.53;;;22.33;;
75655;SDS011;64252;51.094;13.714;2023-02-08T07:49:44;54.00;;;20.83;;
75655;SDS011;64252;51.094;13.714;2023-02-08T07:52:10;36.83;;;18.65;;
75655;SDS011;64252;51.094;13.714;2023-02-08T07:54:35;38.45;;;19.05;;
75655;SDS011;64252;51.094;13.714;2023-02-08T07:57:07;50.83;;;22.20;;
75655;SDS011;64252;51.094;13.714;2023-02-08T07:59:44;48.40;;;21.52;;
75655;SDS011;64252;51.094;13.714;2023-02-08T08:02:13;41.67;;;19.27;;
75655;SDS011;64252;51.094;13.714;2023-02-08T08:04:40;43.08;;;18.65;;
75655;SDS011;64252;51.094;13.714;2023-02-08T08:07:06;42.17;;;17.45;;
75655;SDS011;64252;51.094;13.714;2023-02-08T08:09:31;49.30;;;22.60;;
75655;SDS011;64252;51.094;13.714;2023-02-08T08:11:57;44.75;;;19.88;;
75655;SDS011;64252;51.094;13.714;2023-02-08T08:14:22;43.88;;;20.38;;
75655;SDS011;64252;51.094;13.714;2023-02-08T08:16:48;42.75;;;18.10;;
75655;SDS011;64252;51.094;13.714;2023-02-08T08:19:13;43.47;;;19.70;;
75655;SDS011;64252;51.094;13.714;2023-02-08T08:21:39;52.45;;;22.70;;
75655;SDS011;64252;51.094;13.714;2023-02-08T08:24:05;54.40;;;23.52;;
75655;SDS011;64252;51.094;13.714;2023-02-08T08:26:30;53.05;;;21.58;;
75655;SDS011;64252;51.094;13.714;2023-02-08T08:28:56;47.53;;;21.05;;
75655;SDS011;64252;51.094;13.714;2023-02-08T08:31:22;51.20;;;23.30;;
75655;SDS011;64252;51.094;13.714;2023-02-08T08:33:48;45.33;;;19.83;;
75655;SDS011;64252;51.094;13.714;2023-02-08T08:36:13;50.25;;;21.67;;
75655;SDS011;64252;51.094;13.714;2023-02-08T08:38:39;48.92;;;20.58;;
75655;SDS011;64252;51.094;13.714;2023-02-08T08:41:09;49.85;;;22.70;;
75655;SDS011;64252;51.094;13.714;2023-02-08T08:43:36;48.13;;;20.27;;
75655;SDS011;64252;51.094;13.714;2023-02-08T08:46:03;53.05;;;24.15;;
75655;SDS011;64252;51.094;13.714;2023-02-08T08:48:30;51.78;;;20.90;;
75655;SDS011;64252;51.094;13.714;2023-02-08T08:50:55;50.28;;;20.33;;
75655;SDS011;64252;51.094;13.714;2023-02-08T08:53:21;42.75;;;18.90;;
75655;SDS011;64252;51.094;13.714;2023-02-08T08:55:47;43.17;;;18.48;;
75655;SDS011;64252;51.094;13.714;2023-02-08T08:58:12;48.17;;;20.42;;
75655;SDS011;64252;51.094;13.714;2023-02-08T09:00:38;40.88;;;18.08;;
75655;SDS011;64252;51.094;13.714;2023-02-08T09:03:04;43.15;;;20.95;;
75655;SDS011;64252;51.094;13.714;2023-02-08T09:05:29;42.30;;;19.92;;
75655;SDS011;64252;51.094;13.714;2023-02-08T09:07:55;37.13;;;17.67;;
75655;SDS011;64252;51.094;13.714;2023-02-08T09:10:20;48.13;;;19.77;;
75655;SDS011;64252;51.094;13.714;2023-02-08T09:12:46;41.15;;;19.20;;
75655;SDS011;64252;51.094;13.714;2023-02-08T09:15:11;40.20;;;18.10;;
75655;SDS011;64252;51.094;13.714;2023-02-08T09:17:37;34.00;;;16.52;;
75655;SDS011;64252;51.094;13.714;2023-02-08T09:20:03;38.00;;;17.05;;
75655;SDS011;64252;51.094;13.714;2023-02-08T09:22:29;41.60;;;18.02;;
75655;SDS011;64252;51.094;13.714;2023-02-08T09:24:55;41.35;;;18.60;;
75655;SDS011;64252;51.094;13.714;2023-02-08T09:27:20;41.20;;;17.63;;
75655;SDS011;64252;51.094;13.714;2023-02-08T09:29:46;40.50;;;17.45;;
75655;SDS011;64252;51.094;13.714;2023-02-08T09:32:11;36.35;;;18.40;;
75655;SDS011;64252;51.094;13.714;2023-02-08T09:34:37;39.20;;;16.52;;
75655;SDS011;64252;51.094;13.714;2023-02-08T09:37:02;38.97;;;18.08;;
75655;SDS011;64252;51.094;13.714;2023-02-08T09:39:28;34.22;;;15.63;;
75655;SDS011;64252;51.094;13.714;2023-02-08T09:45:14;28.95;;;13.48;;
75655;SDS011;64252;51.094;13.714;2023-02-08T09:47:53;32.75;;;14.82;;
75655;SDS011;64252;51.094;13.714;2023-02-08T09:55:43;31.92;;;15.45;;
75655;SDS011;64252;51.094;13.714;2023-02-08T09:58:23;31.45;;;14.10;;
75655;SDS011;64252;51.094;13.714;2023-02-08T10:00:59;33.25;;;14.40;;
75655;SDS011;64252;51.094;13.714;2023-02-08T10:03:31;31.52;;;14.85;;
75655;SDS011;64252;51.094;13.714;2023-02-08T10:06:00;35.22;;;15.43;;
75655;SDS011;64252;51.094;13.714;2023-02-08T10:08:27;36.42;;;15.05;;
75655;SDS011;64252;51.094;13.714;2023-02-08T10:11:03;28.48;;;14.27;;
75655;SDS011;64252;51.094;13.714;2023-02-08T10:14:00;33.47;;;14.25;;
75655;SDS011;64252;51.094;13.714;2023-02-08T10:30:20;30.80;;;14.90;;
75655;SDS011;64252;51.094;13.714;2023-02-08T10:32:59;34.30;;;15.98;;
75655;SDS011;64252;51.094;13.714;2023-02-08T10:35:28;34.75;;;16.52;;
75655;SDS011;64252;51.094;13.714;2023-02-08T10:37:59;37.05;;;13.88;;
75655;SDS011;64252;51.094;13.714;2023-02-08T10:40:28;34.15;;;15.15;;
75655;SDS011;64252;51.094;13.714;2023-02-08T10:45:42;31.92;;;14.38;;
75655;SDS011;64252;51.094;13.714;2023-02-08T10:48:22;32.25;;;15.05;;
75655;SDS011;64252;51.094;13.714;2023-02-08T10:50:56;31.88;;;15.15;;
75655;SDS011;64252;51.094;13.714;2023-02-08T10:53:21;29.52;;;14.50;;
75655;SDS011;64252;51.094;13.714;2023-02-08T10:55:47;28.50;;;13.13;;
75655;SDS011;64252;51.094;13.714;2023-02-08T10:58:21;29.52;;;14.10;;
75655;SDS011;64252;51.094;13.714;2023-02-08T11:00:50;30.95;;;13.88;;
75655;SDS011;64252;51.094;13.714;2023-02-08T11:05:52;31.95;;;14.40;;
75655;SDS011;64252;51.094;13.714;2023-02-08T11:08:19;30.15;;;13.63;;
75655;SDS011;64252;51.094;13.714;2023-02-08T11:10:57;26.92;;;13.73;;
75655;SDS011;64252;51.094;13.714;2023-02-08T11:13:32;30.88;;;14.55;;
75655;SDS011;64252;51.094;13.714;2023-02-08T11:16:03;23.95;;;12.20;;
75655;SDS011;64252;51.094;13.714;2023-02-08T11:18:35;33.10;;;13.60;;
75655;SDS011;64252;51.094;13.714;2023-02-08T11:21:04;27.40;;;13.07;;
75655;SDS011;64252;51.094;13.714;2023-02-08T11:23:39;27.55;;;13.13;;
75655;SDS011;64252;51.094;13.714;2023-02-08T11:26:14;27.23;;;13.32;;
75655;SDS011;64252;51.094;13.714;2023-02-08T11:31:39;29.08;;;14.50;;
75655;SDS011;64252;51.094;13.714;2023-02-08T11:34:33;26.63;;;12.35;;
75655;SDS011;64252;51.094;13.714;2023-02-08T11:37:03;25.30;;;12.10;;
75655;SDS011;64252;51.094;13.714;2023-02-08T11:39:51;28.42;;;13.20;;
75655;SDS011;64252;51.094;13.714;2023-02-08T11:42:24;32.80;;;12.43;;
75655;SDS011;64252;51.094;13.714;2023-02-08T11:44:54;26.65;;;11.90;;
75655;SDS011;64252;51.094;13.714;2023-02-08T11:47:23;24.70;;;12.43;;
75655;SDS011;64252;51.094;13.714;2023-02-08T11:49:55;30.95;;;13.32;;
75655;SDS011;64252;51.094;13.714;2023-02-08T11:55:10;26.92;;;12.18;;
75655;SDS011;64252;51.094;13.714;2023-02-08T12:00:25;27.65;;;13.07;;
75655;SDS011;64252;51.094;13.714;2023-02-08T12:11:19;30.23;;;12.23;;
75655;SDS011;64252;51.094;13.714;2023-02-08T12:19:24;24.40;;;12.05;;
75655;SDS011;64252;51.094;13.714;2023-02-08T12:22:15;29.35;;;13.77;;
75655;SDS011;64252;51.094;13.714;2023-02-08T12:38:22;28.13;;;11.50;;
75655;SDS011;64252;51.094;13.714;2023-02-08T12:41:26;24.42;;;10.88;;
75655;SDS011;64252;51.094;13.714;2023-02-08T12:43:58;26.20;;;11.45;;
75655;SDS011;64252;51.094;13.714;2023-02-08T12:51:43;23.00;;;11.20;;
75655;SDS011;64252;51.094;13.714;2023-02-08T12:54:21;28.42;;;11.80;;
75655;SDS011;64252;51.094;13.714;2023-02-08T12:59:35;25.25;;;9.73;;
75655;SDS011;64252;51.094;13.714;2023-02-08T13:02:10;23.15;;;11.02;;
75655;SDS011;64252;51.094;13.714;2023-02-08T13:04:44;22.90;;;11.15;;
75655;SDS011;64252;51.094;13.714;2023-02-08T13:07:24;22.80;;;11.32;;
75655;SDS011;64252;51.094;13.714;2023-02-08T13:10:03;26.52;;;11.07;;
75655;SDS011;64252;51.094;13.714;2023-02-08T13:12:58;21.25;;;10.15;;
75655;SDS011;64252;51.094;13.714;2023-02-08T13:15:36;19.75;;;9.48;;
75655;SDS011;64252;51.094;13.714;2023-02-08T13:18:16;23.60;;;11.50;;
75655;SDS011;64252;51.094;13.714;2023-02-08T13:20:45;25.17;;;9.88;;
75655;SDS011;64252;51.094;13.714;2023-02-08T13:25:47;21.02;;;8.95;;
75655;SDS011;64252;51.094;13.714;2023-02-08T13:28:19;20.25;;;9.70;;
75655;SDS011;64252;51.094;13.714;2023-02-08T13:30:53;20.48;;;9.32;;
75655;SDS011;64252;51.094;13.714;2023-02-08T13:39:04;18.58;;;8.38;;
75655;SDS011;64252;51.094;13.714;2023-02-08T13:41:34;19.65;;;8.73;;
75655;SDS011;64252;51.094;13.714;2023-02-08T13:44:04;22.60;;;9.15;;
75655;SDS011;64252;51.094;13.714;2023-02-08T13:46:38;20.90;;;9.13;;
75655;SDS011;64252;51.094;13.714;2023-02-08T13:49:56;21.42;;;9.95;;
75655;SDS011;64252;51.094;13.714;2023-02-08T13:58:33;21.13;;;10.32;;
75655;SDS011;64252;51.094;13.714;2023-02-08T14:06:06;22.27;;;9.90;;
75655;SDS011;64252;51.094;13.714;2023-02-08T14:08:54;18.38;;;9.07;;
75655;SDS011;64252;51.094;13.714;2023-02-08T14:11:33;24.77;;;10.55;;
75655;SDS011;64252;51.094;13.714;2023-02-08T14:14:17;24.25;;;10.40;;
75655;SDS011;64252;51.094;13.714;2023-02-08T14:19:28;16.25;;;8.20;;
75655;SDS011;64252;51.094;13.714;2023-02-08T14:22:03;24.85;;;11.02;;
75655;SDS011;64252;51.094;13.714;2023-02-08T14:24:41;20.27;;;9.10;;
75655;SDS011;64252;51.094;13.714;2023-02-08T14:27:24;18.52;;;9.27;;
75655;SDS011;64252;51.094;13.714;2023-02-08T14:33:28;20.83;;;9.32;;
75655;SDS011;64252;51.094;13.714;2023-02-08T14:35:28;23.10;;;10.07;;
75655;SDS011;64252;51.094;13.714;2023-02-08T14:41:11;22.77;;;9.38;;
75655;SDS011;64252;51.094;13.714;2023-02-08T14:49:48;19.63;;;9.35;;
75655;SDS011;64252;51.094;13.714;2023-02-08T14:52:20;21.05;;;8.43;;
75655;SDS011;64252;51.094;13.714;2023-02-08T14:57:38;18.40;;;8.57;;
75655;SDS011;64252;51.094;13.714;2023-02-08T15:00:16;20.33;;;7.97;;
75655;SDS011;64252;51.094;13.714;2023-02-08T15:02:44;20.65;;;8.85;;
75655;SDS011;64252;51.094;13.714;2023-02-08T15:05:27;19.77;;;10.30;;
75655;SDS011;64252;51.094;13.714;2023-02-08T15:07:55;18.17;;;8.27;;
75655;SDS011;64252;51.094;13.714;2023-02-08T15:10:23;19.27;;;8.00;;
75655;SDS011;64252;51.094;13.714;2023-02-08T15:12:53;22.50;;;9.73;;
75655;SDS011;64252;51.094;13.714;2023-02-08T15:15:23;20.67;;;9.80;;
75655;SDS011;64252;51.094;13.714;2023-02-08T15:18:02;24.85;;;10.30;;
75655;SDS011;64252;51.094;13.714;2023-02-08T15:20:31;21.58;;;10.38;;
75655;SDS011;64252;51.094;13.714;2023-02-08T15:23:02;20.40;;;9.50;;
75655;SDS011;64252;51.094;13.714;2023-02-08T15:25:42;23.70;;;10.07;;
75655;SDS011;64252;51.094;13.714;2023-02-08T15:28:18;20.27;;;10.32;;
75655;SDS011;64252;51.094;13.714;2023-02-08T15:30:51;22.45;;;10.05;;
75655;SDS011;64252;51.094;13.714;2023-02-08T15:33:21;20.05;;;9.73;;
75655;SDS011;64252;51.094;13.714;2023-02-08T15:35:59;19.25;;;9.25;;
75655;SDS011;64252;51.094;13.714;2023-02-08T15:38:28;22.13;;;10.40;;
75655;SDS011;64252;51.094;13.714;2023-02-08T15:43:34;20.58;;;9.65;;
75655;SDS011;64252;51.094;13.714;2023-02-08T15:46:02;19.85;;;9.13;;
75655;SDS011;64252;51.094;13.714;2023-02-08T15:48:30;22.75;;;10.52;;
75655;SDS011;64252;51.094;13.714;2023-02-08T15:50:57;22.27;;;10.32;;
75655;SDS011;64252;51.094;13.714;2023-02-08T15:53:24;23.48;;;9.43;;
75655;SDS011;64252;51.094;13.714;2023-02-08T15:55:52;23.50;;;10.15;;
75655;SDS011;64252;51.094;13.714;2023-02-08T15:58:34;20.25;;;9.80;;
75655;SDS011;64252;51.094;13.714;2023-02-08T16:01:05;18.70;;;9.35;;
75655;SDS011;64252;51.094;13.714;2023-02-08T16:03:32;17.80;;;8.38;;
75655;SDS011;64252;51.094;13.714;2023-02-08T16:06:02;20.50;;;9.35;;
75655;SDS011;64252;51.094;13.714;2023-02-08T16:08:31;18.73;;;8.95;;
75655;SDS011;64252;51.094;13.714;2023-02-08T16:11:00;24.85;;;11.23;;
75655;SDS011;64252;51.094;13.714;2023-02-08T16:13:37;22.63;;;10.10;;
75655;SDS011;64252;51.094;13.714;2023-02-08T16:16:14;19.63;;;9.00;;
75655;SDS011;64252;51.094;13.714;2023-02-08T16:19:01;20.15;;;9.75;;
75655;SDS011;64252;51.094;13.714;2023-02-08T16:29:20;23.25;;;10.80;;
75655;SDS011;64252;51.094;13.714;2023-02-08T16:31:55;22.80;;;9.05;;
75655;SDS011;64252;51.094;13.714;2023-02-08T16:34:32;23.05;;;9.77;;
75655;SDS011;64252;51.094;13.714;2023-02-08T16:37:01;25.92;;;10.20;;
75655;SDS011;64252;51.094;13.714;2023-02-08T16:42:02;24.40;;;10.35;;
75655;SDS011;64252;51.094;13.714;2023-02-08T16:44:31;21.83;;;10.30;;
75655;SDS011;64252;51.094;13.714;2023-02-08T16:46:58;22.23;;;9.50;;
75655;SDS011;64252;51.094;13.714;2023-02-08T16:49:25;22.65;;;10.45;;
75655;SDS011;64252;51.094;13.714;2023-02-08T16:51:57;22.70;;;10.20;;
75655;SDS011;64252;51.094;13.714;2023-02-08T16:54:23;18.92;;;8.50;;
75655;SDS011;64252;51.094;13.714;2023-02-08T16:56:50;20.60;;;10.00;;
75655;SDS011;64252;51.094;13.714;2023-02-08T16:59:24;22.52;;;10.02;;
75655;SDS011;64252;51.094;13.714;2023-02-08T17:01:51;22.85;;;10.23;;
75655;SDS011;64252;51.094;13.714;2023-02-08T17:04:16;24.73;;;9.98;;
75655;SDS011;64252;51.094;13.714;2023-02-08T17:06:42;17.73;;;8.77;;